sensor_id;sensor_type;location;lat;lon;timestamp;P1;durP1;ratioP1;P2;durP2;ratioP2
34900;SDS011;21112;51.976;5.660;2024-02-28T00:01:51;22.73;;;8.15;;
34900;SDS011;21112;51.976;5.660;2024-02-28T00:04:19;24.08;;;8.57;;
34900;SDS011;21112;51.976;5.660;2024-02-28T00:06:46;25.00;;;10.02;;
34900;SDS011;21112;51.976;5.660;2024-02-28T00:09:14;21.02;;;8.90;;
34900;SDS011;21112;51.976;5.660;2024-02-28T00:11:43;23.95;;;9.43;;
34900;SDS011;21112;51.976;5.660;2024-02-28T00:14:11;22.63;;;8.15;;
34900;SDS011;21112;51.976;5.660;2024-02-28T00:16:39;23.58;;;8.73;;
34900;SDS011;21112;51.976;5.660;2024-02-28T00:19:07;27.70;;;9.45;;
34900;SDS011;21112;51.976;5.660;2024-02-28T00:21:34;31.13;;;10.98;;
34900;SDS011;21112;51.976;5.660;2024-02-28T00:24:01;26.20;;;10.18;;
34900;SDS011;21112;51.976;5.660;2024-02-28T00:26:28;26.40;;;10.55;;
34900;SDS011;21112;51.976;5.660;2024-02-28T00:28:56;20.17;;;8.25;;
34900;SDS011;21112;51.976;5.660;2024-02-28T00:31:25;26.23;;;9.15;;
34900;SDS011;21112;51.976;5.660;2024-02-28T00:33:52;22.23;;;8.63;;
34900;SDS011;21112;51.976;5.660;2024-02-28T00:36:19;19.95;;;8.60;;
34900;SDS011;21112;51.976;5.660;2024-02-28T00:38:46;25.45;;;9.48;;
34900;SDS011;21112;51.976;5.660;2024-02-28T00:41:14;24.45;;;10.07;;
34900;SDS011;21112;51.976;5.660;2024-02-28T00:43:40;23.10;;;8.25;;
34900;SDS011;21112;51.976;5.660;2024-02-28T00:46:09;24.45;;;9.20;;
34900;SDS011;21112;51.976;5.660;2024-02-28T00:48:37;23.08;;;9.07;;
34900;SDS011;21112;51.976;5.660;2024-02-28T00:51:04;27.35;;;10.98;;
34900;SDS011;21112;51.976;5.660;2024-02-28T00:55:59;21.80;;;8.70;;
34900;SDS011;21112;51.976;5.660;2024-02-28T00:58:26;22.05;;;9.48;;
34900;SDS011;21112;51.976;5.660;2024-02-28T01:00:55;26.13;;;9.38;;
34900;SDS011;21112;51.976;5.660;2024-02-28T01:03:23;22.90;;;8.73;;
34900;SDS011;21112;51.976;5.660;2024-02-28T01:05:50;23.20;;;9.02;;
34900;SDS011;21112;51.976;5.660;2024-02-28T01:08:19;22.05;;;9.38;;
34900;SDS011;21112;51.976;5.660;2024-02-28T01:10:46;20.40;;;8.48;;
34900;SDS011;21112;51.976;5.660;2024-02-28T01:13:13;25.83;;;9.70;;
34900;SDS011;21112;51.976;5.660;2024-02-28T01:15:40;21.95;;;8.38;;
34900;SDS011;21112;51.976;5.660;2024-02-28T01:18:07;24.23;;;8.95;;
34900;SDS011;21112;51.976;5.660;2024-02-28T01:20:37;20.27;;;8.63;;
34900;SDS011;21112;51.976;5.660;2024-02-28T01:23:04;24.38;;;10.07;;
34900;SDS011;21112;51.976;5.660;2024-02-28T01:25:31;24.30;;;10.02;;
34900;SDS011;21112;51.976;5.660;2024-02-28T01:27:57;23.90;;;8.73;;
34900;SDS011;21112;51.976;5.660;2024-02-28T01:30:25;24.63;;;9.48;;
34900;SDS011;21112;51.976;5.660;2024-02-28T01:32:51;24.67;;;9.43;;
34900;SDS011;21112;51.976;5.660;2024-02-28T01:35:18;23.20;;;9.98;;
34900;SDS011;21112;51.976;5.660;2024-02-28T01:37:46;23.90;;;9.40;;
34900;SDS011;21112;51.976;5.660;2024-02-28T01:42:40;22.83;;;7.78;;
34900;SDS011;21112;51.976;5.660;2024-02-28T01:45:07;22.58;;;8.52;;
34900;SDS011;21112;51.976;5.660;2024-02-28T01:47:39;20.27;;;8.93;;
34900;SDS011;21112;51.976;5.660;2024-02-28T01:50:06;22.23;;;8.68;;
34900;SDS011;21112;51.976;5.660;2024-02-28T01:52:35;21.77;;;8.77;;
34900;SDS011;21112;51.976;5.660;2024-02-28T01:55:07;21.70;;;9.18;;
34900;SDS011;21112;51.976;5.660;2024-02-28T01:57:35;24.00;;;9.80;;
34900;SDS011;21112;51.976;5.660;2024-02-28T02:00:04;21.80;;;9.00;;
34900;SDS011;21112;51.976;5.660;2024-02-28T02:02:33;21.40;;;9.40;;
34900;SDS011;21112;51.976;5.660;2024-02-28T02:05:00;22.35;;;9.68;;
34900;SDS011;21112;51.976;5.660;2024-02-28T02:07:30;23.75;;;10.30;;
34900;SDS011;21112;51.976;5.660;2024-02-28T02:09:57;23.02;;;10.60;;
34900;SDS011;21112;51.976;5.660;2024-02-28T02:12:25;27.08;;;10.40;;
34900;SDS011;21112;51.976;5.660;2024-02-28T02:14:52;19.95;;;9.75;;
34900;SDS011;21112;51.976;5.660;2024-02-28T02:17:19;27.10;;;11.20;;
34900;SDS011;21112;51.976;5.660;2024-02-28T02:19:46;26.95;;;10.40;;
34900;SDS011;21112;51.976;5.660;2024-02-28T02:22:13;24.17;;;10.95;;
34900;SDS011;21112;51.976;5.660;2024-02-28T02:24:42;25.67;;;9.68;;
34900;SDS011;21112;51.976;5.660;2024-02-28T02:27:09;24.92;;;9.90;;
34900;SDS011;21112;51.976;5.660;2024-02-28T02:29:35;22.60;;;9.02;;
34900;SDS011;21112;51.976;5.660;2024-02-28T02:32:02;23.35;;;9.43;;
34900;SDS011;21112;51.976;5.660;2024-02-28T02:34:30;21.23;;;9.32;;
34900;SDS011;21112;51.976;5.660;2024-02-28T02:36:57;23.80;;;9.38;;
34900;SDS011;21112;51.976;5.660;2024-02-28T02:39:23;21.73;;;9.13;;
34900;SDS011;21112;51.976;5.660;2024-02-28T02:41:52;18.92;;;8.63;;
34900;SDS011;21112;51.976;5.660;2024-02-28T02:44:19;21.05;;;8.50;;
34900;SDS011;21112;51.976;5.660;2024-02-28T02:46:46;21.45;;;8.63;;
34900;SDS011;21112;51.976;5.660;2024-02-28T02:49:13;20.10;;;8.80;;
34900;SDS011;21112;51.976;5.660;2024-02-28T02:51:40;20.42;;;8.60;;
34900;SDS011;21112;51.976;5.660;2024-02-28T02:54:08;20.42;;;7.95;;
34900;SDS011;21112;51.976;5.660;2024-02-28T02:56:35;19.13;;;8.88;;
34900;SDS011;21112;51.976;5.660;2024-02-28T02:59:03;24.58;;;9.15;;
34900;SDS011;21112;51.976;5.660;2024-02-28T03:01:30;20.85;;;8.50;;
34900;SDS011;21112;51.976;5.660;2024-02-28T03:03:57;22.70;;;9.57;;
34900;SDS011;21112;51.976;5.660;2024-02-28T03:06:24;22.20;;;9.85;;
34900;SDS011;21112;51.976;5.660;2024-02-28T03:08:51;22.90;;;9.05;;
34900;SDS011;21112;51.976;5.660;2024-02-28T03:11:18;21.65;;;9.38;;
34900;SDS011;21112;51.976;5.660;2024-02-28T03:13:45;22.52;;;8.95;;
34900;SDS011;21112;51.976;5.660;2024-02-28T03:16:13;21.00;;;9.25;;
34900;SDS011;21112;51.976;5.660;2024-02-28T03:18:40;19.25;;;8.65;;
34900;SDS011;21112;51.976;5.660;2024-02-28T03:21:07;18.60;;;7.97;;
34900;SDS011;21112;51.976;5.660;2024-02-28T03:23:33;17.75;;;8.00;;
34900;SDS011;21112;51.976;5.660;2024-02-28T03:26:01;18.10;;;8.40;;
34900;SDS011;21112;51.976;5.660;2024-02-28T03:28:29;19.05;;;8.15;;
34900;SDS011;21112;51.976;5.660;2024-02-28T03:30:56;21.38;;;7.95;;
34900;SDS011;21112;51.976;5.660;2024-02-28T03:33:24;21.95;;;8.05;;
34900;SDS011;21112;51.976;5.660;2024-02-28T03:35:51;19.92;;;7.72;;
34900;SDS011;21112;51.976;5.660;2024-02-28T03:38:18;17.40;;;7.63;;
34900;SDS011;21112;51.976;5.660;2024-02-28T03:40:45;16.60;;;7.60;;
34900;SDS011;21112;51.976;5.660;2024-02-28T03:43:12;18.27;;;7.18;;
34900;SDS011;21112;51.976;5.660;2024-02-28T03:45:39;21.77;;;7.75;;
34900;SDS011;21112;51.976;5.660;2024-02-28T03:48:06;20.58;;;8.77;;
34900;SDS011;21112;51.976;5.660;2024-02-28T03:50:34;19.20;;;7.93;;
34900;SDS011;21112;51.976;5.660;2024-02-28T03:53:01;18.17;;;8.10;;
34900;SDS011;21112;51.976;5.660;2024-02-28T03:55:28;18.80;;;8.25;;
34900;SDS011;21112;51.976;5.660;2024-02-28T03:57:55;20.77;;;7.97;;
34900;SDS011;21112;51.976;5.660;2024-02-28T04:00:22;15.35;;;7.38;;
34900;SDS011;21112;51.976;5.660;2024-02-28T04:02:49;18.70;;;8.38;;
34900;SDS011;21112;51.976;5.660;2024-02-28T04:05:16;16.65;;;6.97;;
34900;SDS011;21112;51.976;5.660;2024-02-28T04:07:45;14.30;;;6.47;;
34900;SDS011;21112;51.976;5.660;2024-02-28T04:10:13;14.13;;;6.78;;
34900;SDS011;21112;51.976;5.660;2024-02-28T04:12:42;17.38;;;7.03;;
34900;SDS011;21112;51.976;5.660;2024-02-28T04:15:10;17.23;;;6.82;;
34900;SDS011;21112;51.976;5.660;2024-02-28T04:17:37;14.82;;;7.05;;
34900;SDS011;21112;51.976;5.660;2024-02-28T04:20:07;15.73;;;6.63;;
34900;SDS011;21112;51.976;5.660;2024-02-28T04:22:35;14.32;;;6.35;;
34900;SDS011;21112;51.976;5.660;2024-02-28T04:25:04;17.50;;;7.32;;
34900;SDS011;21112;51.976;5.660;2024-02-28T04:27:30;13.98;;;6.38;;
34900;SDS011;21112;51.976;5.660;2024-02-28T04:29:57;16.52;;;7.53;;
34900;SDS011;21112;51.976;5.660;2024-02-28T04:32:24;14.30;;;7.10;;
34900;SDS011;21112;51.976;5.660;2024-02-28T04:34:51;15.07;;;6.85;;
34900;SDS011;21112;51.976;5.660;2024-02-28T04:37:18;17.58;;;7.85;;
34900;SDS011;21112;51.976;5.660;2024-02-28T04:39:46;15.80;;;7.25;;
34900;SDS011;21112;51.976;5.660;2024-02-28T04:42:15;16.45;;;6.88;;
34900;SDS011;21112;51.976;5.660;2024-02-28T04:44:42;15.40;;;6.57;;
34900;SDS011;21112;51.976;5.660;2024-02-28T04:47:09;15.73;;;6.95;;
34900;SDS011;21112;51.976;5.660;2024-02-28T04:49:37;15.45;;;6.82;;
34900;SDS011;21112;51.976;5.660;2024-02-28T04:52:04;14.55;;;7.30;;
34900;SDS011;21112;51.976;5.660;2024-02-28T04:54:31;15.60;;;6.85;;
34900;SDS011;21112;51.976;5.660;2024-02-28T04:56:58;16.48;;;7.38;;
34900;SDS011;21112;51.976;5.660;2024-02-28T04:59:26;18.23;;;6.90;;
34900;SDS011;21112;51.976;5.660;2024-02-28T05:01:52;16.92;;;6.95;;
34900;SDS011;21112;51.976;5.660;2024-02-28T05:04:19;20.73;;;6.72;;
34900;SDS011;21112;51.976;5.660;2024-02-28T05:06:47;18.02;;;7.22;;
34900;SDS011;21112;51.976;5.660;2024-02-28T05:09:14;15.93;;;7.95;;
34900;SDS011;21112;51.976;5.660;2024-02-28T05:11:40;13.15;;;6.53;;
34900;SDS011;21112;51.976;5.660;2024-02-28T05:14:08;14.15;;;6.90;;
34900;SDS011;21112;51.976;5.660;2024-02-28T05:16:37;15.90;;;7.37;;
34900;SDS011;21112;51.976;5.660;2024-02-28T05:21:31;18.05;;;7.32;;
34900;SDS011;21112;51.976;5.660;2024-02-28T05:23:57;17.42;;;6.97;;
34900;SDS011;21112;51.976;5.660;2024-02-28T05:26:24;17.00;;;7.68;;
34900;SDS011;21112;51.976;5.660;2024-02-28T05:28:51;17.30;;;7.45;;
34900;SDS011;21112;51.976;5.660;2024-02-28T05:31:21;16.70;;;7.10;;
34900;SDS011;21112;51.976;5.660;2024-02-28T05:33:51;19.90;;;8.05;;
34900;SDS011;21112;51.976;5.660;2024-02-28T05:36:19;17.23;;;7.22;;
34900;SDS011;21112;51.976;5.660;2024-02-28T05:38:46;17.00;;;7.60;;
34900;SDS011;21112;51.976;5.660;2024-02-28T05:41:13;14.95;;;6.88;;
34900;SDS011;21112;51.976;5.660;2024-02-28T05:43:42;15.10;;;7.07;;
34900;SDS011;21112;51.976;5.660;2024-02-28T05:46:08;15.90;;;6.88;;
34900;SDS011;21112;51.976;5.660;2024-02-28T05:48:35;16.98;;;7.47;;
34900;SDS011;21112;51.976;5.660;2024-02-28T05:51:04;16.17;;;7.05;;
34900;SDS011;21112;51.976;5.660;2024-02-28T05:56:06;13.80;;;6.07;;
34900;SDS011;21112;51.976;5.660;2024-02-28T05:58:43;13.10;;;6.28;;
34900;SDS011;21112;51.976;5.660;2024-02-28T06:03:41;15.30;;;6.82;;
34900;SDS011;21112;51.976;5.660;2024-02-28T06:06:14;14.38;;;6.70;;
34900;SDS011;21112;51.976;5.660;2024-02-28T06:08:42;15.40;;;7.18;;
34900;SDS011;21112;51.976;5.660;2024-02-28T06:13:41;15.50;;;6.40;;
34900;SDS011;21112;51.976;5.660;2024-02-28T06:16:13;18.00;;;7.93;;
34900;SDS011;21112;51.976;5.660;2024-02-28T06:18:46;18.10;;;7.47;;
34900;SDS011;21112;51.976;5.660;2024-02-28T06:21:15;14.68;;;6.72;;
34900;SDS011;21112;51.976;5.660;2024-02-28T06:23:45;16.15;;;8.18;;
34900;SDS011;21112;51.976;5.660;2024-02-28T06:26:17;14.95;;;7.05;;
34900;SDS011;21112;51.976;5.660;2024-02-28T06:28:53;18.10;;;8.05;;
34900;SDS011;21112;51.976;5.660;2024-02-28T06:31:26;17.60;;;8.25;;
34900;SDS011;21112;51.976;5.660;2024-02-28T06:34:01;17.08;;;7.57;;
34900;SDS011;21112;51.976;5.660;2024-02-28T06:36:32;15.40;;;6.53;;
34900;SDS011;21112;51.976;5.660;2024-02-28T06:39:00;17.50;;;7.40;;
34900;SDS011;21112;51.976;5.660;2024-02-28T06:41:27;16.73;;;7.93;;
34900;SDS011;21112;51.976;5.660;2024-02-28T06:43:55;18.17;;;7.57;;
34900;SDS011;21112;51.976;5.660;2024-02-28T06:46:24;19.27;;;7.72;;
34900;SDS011;21112;51.976;5.660;2024-02-28T06:48:52;17.38;;;7.38;;
34900;SDS011;21112;51.976;5.660;2024-02-28T06:51:18;17.48;;;7.35;;
34900;SDS011;21112;51.976;5.660;2024-02-28T06:53:47;15.60;;;6.90;;
34900;SDS011;21112;51.976;5.660;2024-02-28T06:56:14;17.50;;;8.77;;
34900;SDS011;21112;51.976;5.660;2024-02-28T06:58:41;16.45;;;7.53;;
34900;SDS011;21112;51.976;5.660;2024-02-28T07:01:07;16.75;;;7.72;;
34900;SDS011;21112;51.976;5.660;2024-02-28T07:03:34;18.85;;;7.95;;
34900;SDS011;21112;51.976;5.660;2024-02-28T07:06:06;16.33;;;7.60;;
34900;SDS011;21112;51.976;5.660;2024-02-28T07:08:33;21.33;;;8.18;;
34900;SDS011;21112;51.976;5.660;2024-02-28T07:11:02;19.30;;;7.93;;
34900;SDS011;21112;51.976;5.660;2024-02-28T07:13:29;17.75;;;7.80;;
34900;SDS011;21112;51.976;5.660;2024-02-28T07:15:58;20.20;;;9.05;;
34900;SDS011;21112;51.976;5.660;2024-02-28T07:18:25;17.13;;;8.95;;
34900;SDS011;21112;51.976;5.660;2024-02-28T07:20:54;18.17;;;7.70;;
34900;SDS011;21112;51.976;5.660;2024-02-28T07:23:21;18.92;;;8.18;;
34900;SDS011;21112;51.976;5.660;2024-02-28T07:25:51;19.30;;;8.02;;
34900;SDS011;21112;51.976;5.660;2024-02-28T07:28:19;16.17;;;7.95;;
34900;SDS011;21112;51.976;5.660;2024-02-28T07:30:46;18.58;;;8.90;;
34900;SDS011;21112;51.976;5.660;2024-02-28T07:33:14;21.40;;;8.95;;
34900;SDS011;21112;51.976;5.660;2024-02-28T07:35:44;19.70;;;7.93;;
34900;SDS011;21112;51.976;5.660;2024-02-28T07:38:12;22.05;;;10.43;;
34900;SDS011;21112;51.976;5.660;2024-02-28T07:40:41;20.95;;;9.02;;
34900;SDS011;21112;51.976;5.660;2024-02-28T07:43:08;19.85;;;9.02;;
34900;SDS011;21112;51.976;5.660;2024-02-28T07:45:39;19.77;;;8.80;;
34900;SDS011;21112;51.976;5.660;2024-02-28T07:48:06;19.00;;;8.63;;
34900;SDS011;21112;51.976;5.660;2024-02-28T07:50:33;24.50;;;10.75;;
34900;SDS011;21112;51.976;5.660;2024-02-28T07:53:00;22.70;;;9.50;;
34900;SDS011;21112;51.976;5.660;2024-02-28T07:55:27;26.50;;;10.80;;
34900;SDS011;21112;51.976;5.660;2024-02-28T07:57:54;22.35;;;9.27;;
34900;SDS011;21112;51.976;5.660;2024-02-28T08:00:21;21.00;;;9.25;;
34900;SDS011;21112;51.976;5.660;2024-02-28T08:02:52;19.20;;;9.73;;
34900;SDS011;21112;51.976;5.660;2024-02-28T08:05:20;24.48;;;9.40;;
34900;SDS011;21112;51.976;5.660;2024-02-28T08:07:47;24.17;;;9.80;;
34900;SDS011;21112;51.976;5.660;2024-02-28T08:10:14;31.40;;;13.50;;
34900;SDS011;21112;51.976;5.660;2024-02-28T08:12:46;26.92;;;11.45;;
34900;SDS011;21112;51.976;5.660;2024-02-28T08:15:13;24.45;;;10.48;;
34900;SDS011;21112;51.976;5.660;2024-02-28T08:20:12;21.08;;;8.68;;
34900;SDS011;21112;51.976;5.660;2024-02-28T08:22:44;20.85;;;9.15;;
34900;SDS011;21112;51.976;5.660;2024-02-28T08:25:11;19.85;;;9.48;;
34900;SDS011;21112;51.976;5.660;2024-02-28T08:27:44;24.55;;;9.60;;
34900;SDS011;21112;51.976;5.660;2024-02-28T08:30:14;22.08;;;9.60;;
34900;SDS011;21112;51.976;5.660;2024-02-28T08:32:41;20.80;;;8.93;;
34900;SDS011;21112;51.976;5.660;2024-02-28T08:35:08;24.25;;;10.27;;
34900;SDS011;21112;51.976;5.660;2024-02-28T08:37:40;25.37;;;10.57;;
34900;SDS011;21112;51.976;5.660;2024-02-28T08:40:08;26.05;;;10.63;;
34900;SDS011;21112;51.976;5.660;2024-02-28T08:42:35;19.73;;;8.13;;
34900;SDS011;21112;51.976;5.660;2024-02-28T08:45:02;23.50;;;9.50;;
34900;SDS011;21112;51.976;5.660;2024-02-28T08:47:33;31.27;;;11.68;;
34900;SDS011;21112;51.976;5.660;2024-02-28T08:50:00;22.88;;;9.68;;
34900;SDS011;21112;51.976;5.660;2024-02-28T08:52:27;24.45;;;10.73;;
34900;SDS011;21112;51.976;5.660;2024-02-28T08:54:55;23.13;;;11.10;;
34900;SDS011;21112;51.976;5.660;2024-02-28T08:57:23;23.70;;;10.50;;
34900;SDS011;21112;51.976;5.660;2024-02-28T08:59:49;26.05;;;10.40;;
34900;SDS011;21112;51.976;5.660;2024-02-28T09:02:17;26.05;;;10.20;;
34900;SDS011;21112;51.976;5.660;2024-02-28T09:04:44;22.05;;;10.23;;
34900;SDS011;21112;51.976;5.660;2024-02-28T09:07:18;27.13;;;9.80;;
34900;SDS011;21112;51.976;5.660;2024-02-28T09:09:45;21.40;;;9.25;;
34900;SDS011;21112;51.976;5.660;2024-02-28T09:12:15;25.48;;;11.27;;
34900;SDS011;21112;51.976;5.660;2024-02-28T09:14:41;27.10;;;11.07;;
34900;SDS011;21112;51.976;5.660;2024-02-28T09:17:09;24.43;;;10.43;;
34900;SDS011;21112;51.976;5.660;2024-02-28T09:19:38;25.75;;;10.40;;
34900;SDS011;21112;51.976;5.660;2024-02-28T09:22:05;23.92;;;9.77;;
34900;SDS011;21112;51.976;5.660;2024-02-28T09:24:32;24.13;;;10.35;;
34900;SDS011;21112;51.976;5.660;2024-02-28T09:27:01;42.58;;;17.75;;
34900;SDS011;21112;51.976;5.660;2024-02-28T09:29:31;29.27;;;11.60;;
34900;SDS011;21112;51.976;5.660;2024-02-28T09:31:57;30.92;;;11.98;;
34900;SDS011;21112;51.976;5.660;2024-02-28T09:34:24;21.10;;;9.65;;
34900;SDS011;21112;51.976;5.660;2024-02-28T09:36:51;26.50;;;10.57;;
34900;SDS011;21112;51.976;5.660;2024-02-28T09:39:22;27.00;;;11.45;;
34900;SDS011;21112;51.976;5.660;2024-02-28T09:41:53;30.05;;;10.65;;
34900;SDS011;21112;51.976;5.660;2024-02-28T09:44:20;25.15;;;10.38;;
34900;SDS011;21112;51.976;5.660;2024-02-28T09:46:50;22.15;;;8.93;;
34900;SDS011;21112;51.976;5.660;2024-02-28T09:49:20;26.98;;;9.90;;
34900;SDS011;21112;51.976;5.660;2024-02-28T09:51:52;29.77;;;10.40;;
34900;SDS011;21112;51.976;5.660;2024-02-28T09:54:19;25.58;;;9.57;;
34900;SDS011;21112;51.976;5.660;2024-02-28T09:56:47;25.85;;;10.63;;
34900;SDS011;21112;51.976;5.660;2024-02-28T09:59:18;32.35;;;10.20;;
34900;SDS011;21112;51.976;5.660;2024-02-28T10:01:47;24.00;;;10.10;;
34900;SDS011;21112;51.976;5.660;2024-02-28T10:04:23;23.92;;;10.35;;
34900;SDS011;21112;51.976;5.660;2024-02-28T10:06:50;25.30;;;9.80;;
34900;SDS011;21112;51.976;5.660;2024-02-28T10:09:16;26.02;;;10.68;;
34900;SDS011;21112;51.976;5.660;2024-02-28T10:11:44;25.20;;;9.75;;
34900;SDS011;21112;51.976;5.660;2024-02-28T10:14:16;30.92;;;11.65;;
34900;SDS011;21112;51.976;5.660;2024-02-28T10:16:48;22.92;;;9.30;;
34900;SDS011;21112;51.976;5.660;2024-02-28T10:19:15;24.42;;;10.02;;
34900;SDS011;21112;51.976;5.660;2024-02-28T10:21:45;27.98;;;10.90;;
34900;SDS011;21112;51.976;5.660;2024-02-28T10:24:12;29.33;;;10.27;;
34900;SDS011;21112;51.976;5.660;2024-02-28T10:26:43;28.73;;;10.98;;
34900;SDS011;21112;51.976;5.660;2024-02-28T10:29:10;33.58;;;11.63;;
34900;SDS011;21112;51.976;5.660;2024-02-28T10:31:37;22.10;;;10.30;;
34900;SDS011;21112;51.976;5.660;2024-02-28T10:34:05;29.52;;;11.57;;
34900;SDS011;21112;51.976;5.660;2024-02-28T10:36:34;25.17;;;9.48;;
34900;SDS011;21112;51.976;5.660;2024-02-28T10:39:05;31.83;;;10.55;;
34900;SDS011;21112;51.976;5.660;2024-02-28T10:41:34;22.33;;;9.43;;
34900;SDS011;21112;51.976;5.660;2024-02-28T10:44:05;25.05;;;10.60;;
34900;SDS011;21112;51.976;5.660;2024-02-28T10:46:32;22.85;;;9.70;;
34900;SDS011;21112;51.976;5.660;2024-02-28T10:48:59;22.65;;;8.75;;
34900;SDS011;21112;51.976;5.660;2024-02-28T10:51:27;25.17;;;10.73;;
34900;SDS011;21112;51.976;5.660;2024-02-28T10:54:01;29.60;;;10.90;;
34900;SDS011;21112;51.976;5.660;2024-02-28T10:56:34;28.63;;;11.73;;
34900;SDS011;21112;51.976;5.660;2024-02-28T10:59:01;26.52;;;11.05;;
34900;SDS011;21112;51.976;5.660;2024-02-28T11:01:28;28.08;;;12.25;;
34900;SDS011;21112;51.976;5.660;2024-02-28T11:03:56;31.75;;;11.85;;
34900;SDS011;21112;51.976;5.660;2024-02-28T11:06:23;36.40;;;13.77;;
34900;SDS011;21112;51.976;5.660;2024-02-28T11:08:51;31.37;;;11.67;;
34900;SDS011;21112;51.976;5.660;2024-02-28T11:11:21;26.65;;;10.55;;
34900;SDS011;21112;51.976;5.660;2024-02-28T11:13:51;31.00;;;12.68;;
34900;SDS011;21112;51.976;5.660;2024-02-28T11:16:25;20.75;;;9.63;;
34900;SDS011;21112;51.976;5.660;2024-02-28T11:18:54;28.90;;;12.70;;
34900;SDS011;21112;51.976;5.660;2024-02-28T11:21:22;34.03;;;12.35;;
34900;SDS011;21112;51.976;5.660;2024-02-28T11:23:51;32.60;;;12.85;;
34900;SDS011;21112;51.976;5.660;2024-02-28T11:26:23;29.47;;;11.87;;
34900;SDS011;21112;51.976;5.660;2024-02-28T11:28:53;27.42;;;10.95;;
34900;SDS011;21112;51.976;5.660;2024-02-28T11:31:20;26.63;;;11.73;;
34900;SDS011;21112;51.976;5.660;2024-02-28T11:33:48;28.10;;;11.63;;
34900;SDS011;21112;51.976;5.660;2024-02-28T11:36:17;22.73;;;8.80;;
34900;SDS011;21112;51.976;5.660;2024-02-28T11:38:44;25.92;;;11.00;;
34900;SDS011;21112;51.976;5.660;2024-02-28T11:41:12;28.70;;;11.80;;
34900;SDS011;21112;51.976;5.660;2024-02-28T11:43:40;25.38;;;11.20;;
34900;SDS011;21112;51.976;5.660;2024-02-28T11:46:08;32.53;;;12.60;;
34900;SDS011;21112;51.976;5.660;2024-02-28T11:48:36;29.73;;;12.43;;
34900;SDS011;21112;51.976;5.660;2024-02-28T11:51:03;25.38;;;10.18;;
34900;SDS011;21112;51.976;5.660;2024-02-28T11:53:30;27.73;;;12.40;;
34900;SDS011;21112;51.976;5.660;2024-02-28T11:55:57;27.98;;;10.32;;
34900;SDS011;21112;51.976;5.660;2024-02-28T11:58:24;27.58;;;11.40;;
34900;SDS011;21112;51.976;5.660;2024-02-28T12:00:53;31.05;;;11.68;;
34900;SDS011;21112;51.976;5.660;2024-02-28T12:05:51;25.55;;;10.43;;
34900;SDS011;21112;51.976;5.660;2024-02-28T12:08:21;29.05;;;12.43;;
34900;SDS011;21112;51.976;5.660;2024-02-28T12:10:48;26.30;;;11.27;;
34900;SDS011;21112;51.976;5.660;2024-02-28T12:13:18;28.58;;;11.50;;
34900;SDS011;21112;51.976;5.660;2024-02-28T12:15:45;30.48;;;12.57;;
34900;SDS011;21112;51.976;5.660;2024-02-28T12:18:16;30.25;;;11.93;;
34900;SDS011;21112;51.976;5.660;2024-02-28T12:20:43;29.98;;;12.07;;
34900;SDS011;21112;51.976;5.660;2024-02-28T12:23:10;30.23;;;12.38;;
34900;SDS011;21112;51.976;5.660;2024-02-28T12:25:39;24.88;;;11.90;;
34900;SDS011;21112;51.976;5.660;2024-02-28T12:28:06;27.70;;;11.40;;
34900;SDS011;21112;51.976;5.660;2024-02-28T12:30:39;32.28;;;13.05;;
34900;SDS011;21112;51.976;5.660;2024-02-28T12:33:07;27.83;;;12.43;;
34900;SDS011;21112;51.976;5.660;2024-02-28T12:35:38;29.65;;;11.40;;
34900;SDS011;21112;51.976;5.660;2024-02-28T12:38:06;25.60;;;11.05;;
34900;SDS011;21112;51.976;5.660;2024-02-28T12:40:33;33.63;;;13.20;;
34900;SDS011;21112;51.976;5.660;2024-02-28T12:43:00;30.05;;;11.95;;
34900;SDS011;21112;51.976;5.660;2024-02-28T12:45:28;31.85;;;12.23;;
34900;SDS011;21112;51.976;5.660;2024-02-28T12:47:55;24.10;;;11.38;;
34900;SDS011;21112;51.976;5.660;2024-02-28T12:50:23;28.17;;;12.43;;
34900;SDS011;21112;51.976;5.660;2024-02-28T12:52:52;27.63;;;11.55;;
34900;SDS011;21112;51.976;5.660;2024-02-28T12:55:19;27.02;;;11.45;;
34900;SDS011;21112;51.976;5.660;2024-02-28T12:57:47;28.15;;;10.85;;
34900;SDS011;21112;51.976;5.660;2024-02-28T13:00:14;28.67;;;13.32;;
34900;SDS011;21112;51.976;5.660;2024-02-28T13:02:41;27.67;;;12.35;;
34900;SDS011;21112;51.976;5.660;2024-02-28T13:05:09;34.50;;;12.30;;
34900;SDS011;21112;51.976;5.660;2024-02-28T13:07:38;21.52;;;11.13;;
34900;SDS011;21112;51.976;5.660;2024-02-28T13:10:07;26.13;;;11.80;;
34900;SDS011;21112;51.976;5.660;2024-02-28T13:12:35;25.27;;;10.60;;
34900;SDS011;21112;51.976;5.660;2024-02-28T13:15:02;27.38;;;10.90;;
34900;SDS011;21112;51.976;5.660;2024-02-28T13:17:37;28.17;;;11.52;;
34900;SDS011;21112;51.976;5.660;2024-02-28T13:20:04;24.63;;;10.60;;
34900;SDS011;21112;51.976;5.660;2024-02-28T13:22:33;26.63;;;11.20;;
34900;SDS011;21112;51.976;5.660;2024-02-28T13:25:00;26.77;;;11.02;;
34900;SDS011;21112;51.976;5.660;2024-02-28T13:27:28;29.13;;;10.60;;
34900;SDS011;21112;51.976;5.660;2024-02-28T13:29:58;28.17;;;10.02;;
34900;SDS011;21112;51.976;5.660;2024-02-28T13:32:25;26.90;;;12.02;;
34900;SDS011;21112;51.976;5.660;2024-02-28T13:34:51;22.70;;;10.85;;
34900;SDS011;21112;51.976;5.660;2024-02-28T13:37:20;35.15;;;15.25;;
34900;SDS011;21112;51.976;5.660;2024-02-28T13:39:47;25.17;;;11.32;;
34900;SDS011;21112;51.976;5.660;2024-02-28T13:42:17;30.60;;;13.00;;
34900;SDS011;21112;51.976;5.660;2024-02-28T13:44:46;24.88;;;11.60;;
34900;SDS011;21112;51.976;5.660;2024-02-28T13:47:13;28.48;;;10.55;;
34900;SDS011;21112;51.976;5.660;2024-02-28T13:49:40;30.20;;;11.13;;
34900;SDS011;21112;51.976;5.660;2024-02-28T13:52:07;27.60;;;10.50;;
34900;SDS011;21112;51.976;5.660;2024-02-28T13:54:34;20.83;;;9.82;;
34900;SDS011;21112;51.976;5.660;2024-02-28T13:57:01;22.40;;;9.95;;
34900;SDS011;21112;51.976;5.660;2024-02-28T13:59:30;18.98;;;8.70;;
34900;SDS011;21112;51.976;5.660;2024-02-28T14:01:58;21.33;;;9.05;;
34900;SDS011;21112;51.976;5.660;2024-02-28T14:04:28;23.55;;;9.23;;
34900;SDS011;21112;51.976;5.660;2024-02-28T14:06:55;23.52;;;9.77;;
34900;SDS011;21112;51.976;5.660;2024-02-28T14:09:21;23.98;;;9.50;;
34900;SDS011;21112;51.976;5.660;2024-02-28T14:11:48;25.65;;;10.52;;
34900;SDS011;21112;51.976;5.660;2024-02-28T14:14:15;27.88;;;9.57;;
34900;SDS011;21112;51.976;5.660;2024-02-28T14:16:42;26.17;;;11.02;;
34900;SDS011;21112;51.976;5.660;2024-02-28T14:19:11;25.00;;;9.73;;
34900;SDS011;21112;51.976;5.660;2024-02-28T14:21:38;24.35;;;9.98;;
34900;SDS011;21112;51.976;5.660;2024-02-28T14:24:05;23.08;;;9.23;;
34900;SDS011;21112;51.976;5.660;2024-02-28T14:26:34;18.05;;;8.35;;
34900;SDS011;21112;51.976;5.660;2024-02-28T14:29:01;23.60;;;10.82;;
34900;SDS011;21112;51.976;5.660;2024-02-28T14:31:30;36.90;;;13.85;;
34900;SDS011;21112;51.976;5.660;2024-02-28T14:33:57;28.50;;;9.52;;
34900;SDS011;21112;51.976;5.660;2024-02-28T14:36:25;21.80;;;9.32;;
34900;SDS011;21112;51.976;5.660;2024-02-28T14:38:52;19.90;;;7.85;;
34900;SDS011;21112;51.976;5.660;2024-02-28T14:41:19;21.85;;;8.18;;
34900;SDS011;21112;51.976;5.660;2024-02-28T14:43:46;21.95;;;8.95;;
34900;SDS011;21112;51.976;5.660;2024-02-28T14:46:14;23.60;;;8.82;;
34900;SDS011;21112;51.976;5.660;2024-02-28T14:51:16;16.80;;;7.63;;
34900;SDS011;21112;51.976;5.660;2024-02-28T14:53:46;17.98;;;7.85;;
34900;SDS011;21112;51.976;5.660;2024-02-28T14:56:13;19.42;;;9.07;;